createdAt,value
2022-10-21T00:00:33.289Z,87.16
2022-10-21T00:01:33.326Z,87.37
2022-10-21T00:02:33.227Z,87.61
2022-10-21T00:03:33.217Z,88.33
2022-10-21T00:04:33.214Z,87.61
2022-10-21T00:05:33.227Z,87.71
2022-10-21T00:06:33.206Z,88.43
2022-10-21T00:07:33.177Z,87.61
2022-10-21T00:08:33.233Z,87.67
2022-10-21T00:09:33.159Z,88.12
2022-10-21T00:10:33.173Z,88.12
2022-10-21T00:11:33.173Z,88.12
2022-10-21T00:12:33.115Z,88.23
2022-10-21T00:13:33.106Z,88.33
2022-10-21T00:14:33.102Z,88.53
2022-10-21T00:15:33.104Z,88.64
2022-10-21T00:16:33.098Z,88.53
2022-10-21T00:17:33.088Z,88.53
2022-10-21T00:18:33.047Z,88.33
2022-10-21T00:19:33.043Z,88.33
2022-10-21T00:20:35.971Z,88.57
2022-10-21T00:21:34.057Z,88.78
2022-10-21T00:22:33.010Z,88.47
2022-10-21T00:23:32.996Z,88.47
2022-10-21T00:24:33.001Z,88.57
2022-10-21T00:25:32.999Z,88.33
2022-10-21T00:26:36.210Z,88.43
2022-10-21T00:27:33.982Z,88.53
2022-10-21T00:28:32.942Z,88.43
2022-10-21T00:29:32.929Z,88.53
2022-10-21T00:30:32.936Z,89.46
2022-10-21T00:31:32.925Z,89.36
2022-10-21T00:32:32.896Z,89.46
2022-10-21T00:33:32.904Z,89.36
2022-10-21T00:34:32.873Z,88.95
2022-10-21T00:35:32.865Z,89.25
2022-10-21T00:36:32.864Z,89.66
2022-10-21T00:37:32.835Z,89.36
2022-10-21T00:38:32.830Z,89.56
2022-10-21T00:39:32.850Z,89.46
2022-10-21T00:40:32.819Z,89.66
2022-10-21T00:41:32.815Z,89.87
2022-10-21T00:42:32.782Z,89.66
2022-10-21T00:43:32.783Z,89.56
2022-10-21T00:44:32.776Z,89.25
2022-10-21T00:45:32.750Z,89.25
2022-10-21T00:46:32.737Z,89.04
2022-10-21T00:47:32.745Z,89.56
2022-10-21T00:48:32.746Z,88.64
2022-10-21T00:49:32.704Z,88.64
2022-10-21T00:50:32.726Z,89.56
2022-10-21T00:51:32.678Z,89.46
2022-10-21T00:52:32.779Z,89.66
2022-10-21T00:53:32.682Z,89.56
2022-10-21T00:54:32.648Z,89.19
2022-10-21T00:55:32.635Z,89.50
2022-10-21T00:56:32.659Z,89.56
2022-10-21T00:57:32.641Z,90.38
2022-10-21T00:58:32.599Z,90.18
2022-10-21T00:59:32.593Z,90.18
2022-10-21T01:00:32.582Z,90.08
2022-10-21T01:01:32.718Z,90.18
2022-10-21T01:02:32.559Z,90.18
2022-10-21T01:03:32.547Z,90.12
2022-10-21T01:04:32.535Z,90.22
2022-10-21T01:05:32.564Z,90.38
2022-10-21T01:06:32.532Z,90.08
2022-10-21T01:07:35.291Z,90.83
2022-10-21T01:08:33.564Z,90.48
2022-10-21T01:09:34.055Z,91.10
2022-10-21T01:10:32.489Z,90.01
2022-10-21T01:11:32.469Z,89.81
2022-10-21T01:12:32.461Z,90.53
2022-10-21T01:13:32.443Z,90.73
2022-10-21T01:14:32.421Z,90.73
2022-10-21T01:15:32.455Z,90.28
2022-10-21T01:16:32.402Z,90.89
2022-10-21T01:17:44.129Z,90.80
2022-10-21T01:18:33.395Z,90.59
2022-10-21T01:19:32.409Z,90.94
2022-10-21T01:20:32.353Z,91.20
2022-10-21T01:21:32.344Z,90.80
2022-10-21T01:22:32.352Z,91.04
2022-10-21T01:23:32.462Z,91.04
2022-10-21T01:24:32.357Z,91.10
2022-10-21T01:25:32.321Z,90.73
2022-10-21T01:26:32.292Z,91.25
2022-10-21T01:27:32.295Z,92.07
2022-10-21T01:28:32.285Z,91.31
2022-10-21T01:29:32.255Z,91.72
2022-10-21T01:30:32.247Z,91.20
2022-10-21T01:31:32.254Z,92.23
2022-10-21T01:32:32.215Z,91.20
2022-10-21T01:33:32.233Z,91.61
2022-10-21T01:34:32.201Z,91.41
2022-10-21T01:35:32.210Z,91.51
2022-10-21T01:36:32.196Z,92.03
2022-10-21T01:37:32.250Z,91.51
2022-10-21T01:38:32.178Z,91.61
2022-10-21T01:39:32.153Z,91.51
2022-10-21T01:40:32.149Z,92.23
2022-10-21T01:41:32.122Z,92.23
2022-10-21T01:42:32.109Z,92.13
2022-10-21T01:43:32.134Z,92.33
2022-10-21T01:44:32.099Z,91.93
2022-10-21T01:45:32.073Z,92.33
2022-10-21T01:46:32.061Z,92.33
2022-10-21T01:47:32.058Z,92.54
2022-10-21T01:48:32.084Z,92.54
2022-10-21T01:49:32.033Z,92.64
2022-10-21T01:50:32.015Z,92.54
2022-10-21T01:51:32.005Z,92.64
2022-10-21T01:52:31.991Z,92.54
2022-10-21T01:53:32.009Z,93.05
2022-10-21T01:54:31.988Z,93.26
2022-10-21T01:55:31.979Z,93.26
2022-10-21T01:56:31.952Z,92.54
2022-10-21T01:57:31.961Z,92.95
2022-10-21T01:58:31.929Z,93.57
2022-10-21T01:59:31.914Z,93.46
2022-10-21T02:00:31.918Z,93.87
2022-10-21T02:01:31.983Z,93.98
2022-10-21T02:02:31.885Z,93.46
2022-10-21T02:03:31.888Z,93.46
2022-10-21T02:04:31.867Z,93.26
2022-10-21T02:05:31.851Z,93.67
2022-10-21T02:06:31.836Z,93.57
2022-10-21T02:07:31.827Z,93.67
2022-10-21T02:08:31.894Z,93.77
2022-10-21T02:10:31.814Z,94.18
2022-10-21T02:11:31.788Z,94.08
2022-10-21T02:12:31.769Z,94.18
2022-10-21T02:13:31.779Z,94.18
2022-10-21T02:14:31.783Z,94.08
2022-10-21T02:15:31.741Z,93.98
2022-10-21T02:16:31.740Z,93.98
2022-10-21T02:17:31.710Z,93.77
2022-10-21T02:18:31.707Z,92.58
2022-10-21T02:20:31.720Z,93.05
2022-10-21T02:21:31.683Z,92.69
2022-10-21T02:22:31.655Z,92.79
2022-10-21T02:23:31.655Z,92.95
2022-10-21T02:24:31.634Z,92.58
2022-10-21T02:25:31.647Z,92.79
2022-10-21T02:26:31.627Z,93.20
2022-10-21T02:27:31.618Z,92.58
2022-10-21T02:28:31.655Z,92.89
2022-10-21T02:29:31.602Z,92.99
2022-10-21T02:30:31.576Z,93.16
2022-10-21T02:31:31.578Z,92.99
2022-10-21T02:32:31.576Z,93.30
2022-10-21T02:33:31.536Z,92.58
2022-10-21T02:34:31.522Z,92.69
2022-10-21T02:35:31.531Z,92.64
2022-10-21T02:36:31.510Z,92.85
2022-10-21T02:37:31.567Z,92.95
2022-10-21T02:38:31.480Z,92.74
2022-10-21T02:39:31.489Z,93.61
2022-10-21T02:40:31.472Z,93.57
2022-10-21T02:41:31.442Z,93.20
2022-10-21T02:42:31.530Z,93.10
2022-10-21T02:43:31.434Z,93.16
2022-10-21T02:44:31.423Z,92.58
2022-10-21T02:45:31.401Z,92.17
2022-10-21T02:46:31.452Z,92.07
2022-10-21T02:47:31.380Z,92.44
2022-10-21T02:48:31.382Z,91.86
2022-10-21T02:49:31.375Z,91.76
2022-10-21T02:50:32.178Z,92.58
2022-10-21T02:51:31.333Z,92.85
2022-10-21T02:52:31.319Z,92.99
2022-10-21T02:53:31.333Z,92.54
2022-10-21T02:54:31.298Z,93.20
2022-10-21T02:55:31.296Z,93.46
2022-10-21T02:56:31.306Z,93.61
2022-10-21T02:57:31.278Z,94.12
2022-10-21T02:58:31.277Z,94.12
2022-10-21T02:59:31.250Z,93.61
2022-10-21T03:00:32.917Z,93.30
2022-10-21T03:01:31.318Z,93.30
2022-10-21T03:02:31.205Z,93.40
2022-10-21T03:03:31.214Z,93.61
2022-10-21T03:04:31.202Z,93.71
2022-10-21T03:06:31.170Z,93.46
2022-10-21T03:07:31.188Z,93.57
2022-10-21T03:08:31.216Z,92.89
2022-10-21T03:09:31.146Z,92.99
2022-10-21T03:10:31.196Z,92.79
2022-10-21T03:11:31.109Z,92.79
2022-10-21T03:12:31.105Z,92.79
2022-10-21T03:13:31.110Z,92.58
2022-10-21T03:14:31.113Z,92.27
2022-10-21T03:15:31.084Z,92.27
2022-10-21T03:16:31.059Z,92.17
2022-10-21T03:17:31.046Z,92.17
2022-10-21T03:18:31.048Z,92.07
2022-10-21T03:19:31.020Z,91.76
2022-10-21T03:20:31.049Z,92.03
2022-10-21T03:21:30.993Z,92.58
2022-10-21T03:22:30.984Z,92.64
2022-10-21T03:23:30.977Z,92.79
2022-10-21T03:24:30.984Z,92.48
2022-10-21T03:25:35.287Z,92.38
2022-10-21T03:26:30.961Z,91.66
2022-10-21T03:28:30.923Z,93.10
2022-10-21T03:29:30.928Z,92.79
2022-10-21T03:30:30.906Z,92.38
2022-10-21T03:31:30.883Z,92.69
2022-10-21T03:32:30.894Z,92.69
2022-10-21T03:33:30.859Z,92.79
2022-10-21T03:34:30.872Z,92.63
2022-10-21T03:35:30.863Z,92.63
2022-10-21T03:36:30.841Z,92.83
2022-10-21T03:37:30.816Z,92.63
2022-10-21T03:38:30.828Z,92.73
2022-10-21T03:39:30.788Z,92.63
2022-10-21T03:40:30.802Z,92.83
2022-10-21T03:41:30.772Z,92.63
2022-10-21T03:42:30.754Z,92.73
2022-10-21T03:43:30.820Z,92.93
2022-10-21T03:44:30.755Z,93.18
2022-10-21T03:45:30.749Z,93.70
2022-10-21T03:46:30.720Z,93.59
2022-10-21T03:47:30.702Z,93.29
2022-10-21T03:48:30.690Z,93.59
2022-10-21T03:49:30.729Z,93.80
2022-10-21T03:50:30.709Z,93.70
2022-10-21T03:51:30.655Z,93.70
2022-10-21T03:52:30.657Z,93.80
2022-10-21T03:53:42.794Z,94.01
2022-10-21T03:54:31.616Z,93.39
2022-10-21T03:55:30.622Z,93.08
2022-10-21T03:56:30.618Z,93.80
2022-10-21T03:57:30.589Z,93.02
2022-10-21T03:58:30.578Z,93.33
2022-10-21T03:59:30.571Z,92.82
2022-10-21T04:00:31.683Z,93.74
2022-10-21T04:01:30.591Z,93.84
2022-10-21T04:02:30.534Z,93.64
2022-10-21T04:03:30.530Z,93.33
2022-10-21T04:04:30.511Z,93.84
2022-10-21T04:05:30.547Z,93.95
2022-10-21T04:06:30.487Z,93.84
2022-10-21T04:07:30.483Z,93.74
2022-10-21T04:08:30.558Z,93.95
2022-10-21T04:09:30.450Z,93.88
2022-10-21T04:10:30.448Z,93.79
2022-10-21T04:11:30.445Z,93.79
2022-10-21T04:12:30.453Z,93.99
2022-10-21T04:13:30.404Z,93.79
2022-10-21T04:14:30.402Z,93.48
2022-10-21T04:15:30.380Z,93.68
2022-10-21T04:16:30.387Z,93.64
2022-10-21T04:17:30.358Z,93.64
2022-10-21T04:18:30.369Z,93.88
2022-10-21T04:19:30.340Z,94.15
2022-10-21T04:20:30.334Z,93.84
2022-10-21T04:21:30.322Z,93.74
2022-10-21T04:22:30.354Z,93.79
2022-10-21T04:23:30.285Z,94.40
2022-10-21T04:24:30.292Z,93.43
2022-10-21T04:25:30.279Z,93.88
2022-10-21T04:26:30.257Z,93.48
2022-10-21T04:27:30.298Z,93.79
2022-10-21T04:28:30.251Z,94.40
2022-10-21T04:29:30.230Z,94.30
2022-10-21T04:30:30.236Z,94.51
2022-10-21T04:31:32.161Z,94.40
2022-10-21T04:32:30.212Z,94.51
2022-10-21T04:33:30.181Z,94.30
2022-10-21T04:34:30.189Z,94.30
2022-10-21T04:35:32.938Z,94.40
2022-10-21T04:36:30.141Z,94.09
2022-10-21T04:37:30.165Z,94.09
2022-10-21T04:38:30.121Z,94.09
2022-10-21T04:39:30.124Z,94.09
2022-10-21T04:40:30.110Z,94.30
2022-10-21T04:41:30.081Z,94.51
2022-10-21T04:42:30.104Z,94.71
2022-10-21T04:43:30.095Z,94.30
2022-10-21T04:44:30.044Z,94.09
2022-10-21T04:45:30.057Z,94.09
2022-10-21T04:46:30.035Z,94.30
2022-10-21T04:47:30.020Z,93.88
2022-10-21T04:48:30.014Z,94.40
2022-10-21T04:49:30.025Z,94.09
2022-10-21T04:50:30.010Z,94.30
2022-10-21T04:52:29.958Z,94.65
2022-10-21T04:53:29.957Z,94.65
2022-10-21T04:54:29.948Z,94.55
2022-10-21T04:55:29.958Z,94.55
2022-10-21T04:56:29.946Z,94.45
2022-10-21T04:57:29.932Z,94.45
2022-10-21T04:58:29.889Z,94.45
2022-10-21T04:59:29.885Z,94.90
2022-10-21T05:00:29.867Z,94.76
2022-10-21T05:01:29.996Z,94.85
2022-10-21T05:02:29.878Z,94.96
2022-10-21T05:03:29.832Z,94.70
2022-10-21T05:04:29.844Z,94.55
2022-10-21T05:05:29.812Z,94.49
2022-10-21T05:06:29.886Z,94.49
2022-10-21T05:07:29.787Z,94.59
2022-10-21T05:08:29.880Z,94.28
2022-10-21T05:09:29.767Z,94.80
2022-10-21T05:10:29.803Z,94.59
2022-10-21T05:11:29.737Z,95.10
2022-10-21T05:12:29.822Z,95.10
2022-10-21T05:13:29.742Z,95.00
2022-10-21T05:14:29.739Z,94.59
2022-10-21T05:15:29.693Z,94.80
2022-10-21T05:16:29.700Z,94.90
2022-10-21T05:17:29.695Z,94.90
2022-10-21T05:18:29.683Z,95.21
2022-10-21T05:19:31.432Z,94.59
2022-10-21T05:20:29.652Z,95.10
2022-10-21T05:21:29.703Z,95.31
2022-10-21T05:22:29.613Z,95.31
2022-10-21T05:23:29.602Z,95.15
2022-10-21T05:24:29.590Z,95.15
2022-10-21T05:25:31.831Z,95.05
2022-10-21T05:26:29.621Z,95.25
2022-10-21T05:27:29.580Z,96.28
2022-10-21T05:28:29.561Z,95.83
2022-10-21T05:29:29.538Z,96.39
2022-10-21T05:30:29.598Z,96.24
2022-10-21T05:31:29.537Z,96.55
2022-10-21T05:32:29.518Z,96.86
2022-10-21T05:33:29.498Z,96.45
2022-10-21T05:34:29.477Z,96.34
2022-10-21T05:35:29.466Z,96.20
2022-10-21T05:36:29.458Z,96.81
2022-10-21T05:37:29.455Z,96.24
2022-10-21T05:38:29.471Z,96.45
2022-10-21T05:39:29.494Z,96.81
2022-10-21T05:40:29.414Z,96.20
2022-10-21T05:41:29.396Z,96.55
2022-10-21T05:42:29.394Z,96.55
2022-10-21T05:43:29.415Z,96.81
2022-10-21T05:44:29.390Z,96.41
2022-10-21T05:45:29.350Z,96.71
2022-10-21T05:46:29.340Z,96.71
2022-10-21T05:47:29.356Z,96.34
2022-10-21T05:48:36.451Z,96.30
2022-10-21T05:49:29.309Z,95.99
2022-10-21T05:50:29.294Z,96.50
2022-10-21T05:51:29.297Z,96.71
2022-10-21T05:52:29.289Z,96.30
2022-10-21T05:53:29.270Z,96.41
2022-10-21T05:54:29.247Z,96.41
2022-10-21T05:55:29.236Z,96.09
2022-10-21T05:56:29.225Z,96.09
2022-10-21T05:57:29.217Z,96.50
2022-10-21T05:58:29.225Z,96.41
2022-10-21T05:59:29.195Z,96.09
2022-10-21T06:00:29.246Z,96.41
2022-10-21T06:01:29.254Z,96.41
2022-10-21T06:02:36.506Z,96.41
2022-10-21T06:03:29.171Z,96.50
2022-10-21T06:04:29.137Z,96.09
2022-10-21T06:05:29.142Z,96.20
2022-10-21T06:06:29.122Z,96.56
2022-10-21T06:07:29.101Z,96.05
2022-10-21T06:08:29.212Z,95.95
2022-10-21T06:09:29.094Z,95.33
2022-10-21T06:10:29.311Z,95.23
2022-10-21T06:11:29.079Z,94.81
2022-10-21T06:12:31.600Z,94.98
2022-10-21T06:13:29.058Z,94.67
2022-10-21T06:14:29.021Z,94.46
2022-10-21T06:15:29.011Z,94.46
2022-10-21T06:16:29.033Z,94.67
2022-10-21T06:17:28.983Z,94.67
2022-10-21T06:18:28.992Z,94.46
2022-10-21T06:19:28.961Z,94.05
2022-10-21T06:20:28.954Z,93.95
2022-10-21T06:21:28.940Z,94.46
2022-10-21T06:22:28.933Z,94.15
2022-10-21T06:23:28.965Z,94.26
2022-10-21T06:24:28.909Z,94.46
2022-10-21T06:25:28.905Z,94.26
2022-10-21T06:26:30.966Z,94.36
2022-10-21T06:27:28.871Z,94.46
2022-10-21T06:28:28.860Z,94.56
2022-10-21T06:29:28.870Z,94.36
2022-10-21T06:30:28.837Z,94.36
2022-10-21T06:31:28.847Z,94.77
2022-10-21T06:32:28.833Z,94.42
2022-10-21T06:33:28.852Z,94.36
2022-10-21T06:34:28.826Z,94.56
2022-10-21T06:35:28.781Z,94.31
2022-10-21T06:36:28.770Z,94.87
2022-10-21T06:37:28.765Z,95.08
2022-10-21T06:38:28.769Z,95.24
2022-10-21T06:39:28.755Z,95.28
2022-10-21T06:40:28.749Z,94.83
2022-10-21T06:41:28.714Z,94.73
2022-10-21T06:42:28.706Z,94.83
2022-10-21T06:43:28.720Z,94.52
2022-10-21T06:44:28.699Z,94.42
2022-10-21T06:45:28.670Z,94.27
2022-10-21T06:46:28.673Z,94.83
2022-10-21T06:47:28.652Z,94.62
2022-10-21T06:48:28.968Z,94.48
2022-10-21T06:49:28.793Z,94.17
2022-10-21T06:50:28.628Z,94.37
2022-10-21T06:51:28.606Z,94.89
2022-10-21T06:52:28.592Z,94.48
2022-10-21T06:53:28.582Z,94.37
2022-10-21T06:54:28.589Z,95.09
2022-10-21T06:55:28.568Z,94.99
2022-10-21T06:56:28.565Z,95.56
2022-10-21T06:57:28.533Z,94.95
2022-10-21T06:58:28.521Z,94.64
2022-10-21T06:59:28.533Z,94.54
2022-10-21T07:01:34.530Z,94.95
2022-10-21T07:02:29.486Z,95.21
2022-10-21T07:03:28.464Z,94.70
2022-10-21T07:04:28.473Z,93.87
2022-10-21T07:05:28.459Z,93.87
2022-10-21T07:06:28.499Z,93.98
2022-10-21T07:07:28.446Z,93.46
2022-10-21T07:08:46.202Z,94.29
2022-10-21T07:09:29.483Z,93.98
2022-10-21T07:10:28.417Z,93.77
2022-10-21T07:11:28.394Z,93.98
2022-10-21T07:12:28.408Z,93.73
2022-10-21T07:13:28.355Z,93.63
2022-10-21T07:14:28.351Z,93.83
2022-10-21T07:15:28.332Z,93.63
2022-10-21T07:16:28.349Z,94.24
2022-10-21T07:17:28.315Z,92.50
2022-10-21T07:18:28.324Z,92.66
2022-10-21T07:19:28.306Z,91.94
2022-10-21T07:20:28.321Z,92.55
2022-10-21T07:21:28.270Z,92.61
2022-10-21T07:22:28.258Z,92.31
2022-10-21T07:23:28.243Z,92.00
2022-10-21T07:24:28.268Z,92.10
2022-10-21T07:25:28.266Z,91.49
2022-10-21T07:26:28.213Z,89.90
2022-10-21T07:27:28.195Z,90.01
2022-10-21T07:28:28.202Z,90.52
2022-10-21T07:29:28.174Z,90.93
2022-10-21T07:30:28.162Z,90.73
2022-10-21T07:31:28.182Z,90.52
2022-10-21T07:32:28.152Z,90.42
2022-10-21T07:33:28.129Z,90.83
2022-10-21T07:34:28.118Z,90.58
2022-10-21T07:35:28.161Z,89.97
2022-10-21T07:36:28.131Z,89.87
2022-10-21T07:37:28.086Z,90.69
2022-10-21T07:38:28.077Z,90.69
2022-10-21T07:39:28.082Z,90.37
2022-10-21T07:40:28.079Z,90.28
2022-10-21T07:41:28.055Z,90.84
2022-10-21T07:42:28.034Z,90.58
2022-10-21T07:43:28.028Z,90.95
2022-10-21T07:44:28.040Z,90.03
2022-10-21T07:45:27.993Z,90.34
2022-10-21T07:46:28.002Z,90.75
2022-10-21T07:47:28.004Z,90.34
2022-10-21T07:48:27.960Z,90.03
2022-10-21T07:49:28.640Z,89.98
2022-10-21T07:50:27.987Z,89.62
2022-10-21T07:51:31.014Z,88.90
2022-10-21T07:52:27.939Z,89.11
2022-10-21T07:53:27.915Z,89.42
2022-10-21T07:54:27.897Z,88.90
2022-10-21T07:55:27.881Z,89.00
2022-10-21T07:56:27.901Z,89.42
2022-10-21T07:57:27.887Z,89.21
2022-10-21T07:58:27.889Z,89.78
2022-10-21T07:59:27.864Z,89.27
2022-10-21T08:00:27.830Z,89.17
2022-10-21T08:01:28.002Z,88.96
2022-10-21T08:02:27.807Z,88.92
2022-10-21T08:03:27.806Z,88.04
2022-10-21T08:04:27.803Z,88.41
2022-10-21T08:05:27.767Z,88.41
2022-10-21T08:06:27.769Z,88.06
2022-10-21T08:07:27.762Z,87.79
2022-10-21T08:08:27.832Z,87.14
2022-10-21T08:09:27.727Z,86.94
2022-10-21T08:10:27.712Z,87.45
2022-10-21T08:11:27.749Z,87.14
2022-10-21T08:12:27.719Z,87.14
2022-10-21T08:13:27.677Z,86.94
2022-10-21T08:14:27.671Z,86.29
2022-10-21T08:15:27.654Z,85.91
2022-10-21T08:16:27.653Z,86.59
2022-10-21T08:17:27.658Z,86.90
2022-10-21T08:18:27.629Z,86.38
2022-10-21T08:19:27.610Z,86.18
2022-10-21T08:20:27.616Z,86.79
2022-10-21T08:21:27.594Z,86.38
2022-10-21T08:22:27.600Z,85.94
2022-10-21T08:23:27.565Z,85.88
2022-10-21T08:24:27.575Z,85.47
2022-10-21T08:25:27.544Z,85.97
2022-10-21T08:26:27.549Z,85.94
2022-10-21T08:27:27.523Z,85.63
2022-10-21T08:28:27.537Z,85.73
2022-10-21T08:29:27.517Z,85.94
2022-10-21T08:30:27.496Z,85.79
2022-10-21T08:31:27.484Z,85.69
2022-10-21T08:32:27.494Z,85.89
2022-10-21T08:33:27.455Z,85.49
2022-10-21T08:34:27.451Z,85.49
2022-10-21T08:35:27.430Z,85.28
2022-10-21T08:36:27.452Z,84.94
2022-10-21T08:37:27.438Z,84.57
2022-10-21T08:38:27.407Z,84.94
2022-10-21T08:39:27.384Z,84.74
2022-10-21T08:40:27.392Z,84.74
2022-10-21T08:41:27.408Z,84.83
2022-10-21T08:42:27.369Z,85.14
2022-10-21T08:43:27.369Z,85.55
2022-10-21T08:44:27.335Z,85.55
2022-10-21T08:45:27.324Z,85.04
2022-10-21T08:46:27.303Z,85.30
2022-10-21T08:47:27.316Z,85.35
2022-10-21T08:48:27.305Z,85.30
2022-10-21T08:49:29.895Z,85.10
2022-10-21T08:50:27.265Z,85.41
2022-10-21T08:51:27.250Z,85.10
2022-10-21T08:52:27.262Z,85.61
2022-10-21T08:53:27.226Z,85.41
2022-10-21T08:54:27.238Z,85.30
2022-10-21T08:55:27.211Z,85.41
2022-10-21T08:56:27.223Z,84.49
2022-10-21T08:57:27.202Z,84.69
2022-10-21T08:58:27.196Z,84.80
2022-10-21T08:59:27.159Z,85.16
2022-10-21T09:00:27.150Z,84.96
2022-10-21T09:01:27.288Z,84.86
2022-10-21T09:02:27.460Z,84.96
2022-10-21T09:03:28.476Z,84.59
2022-10-21T09:04:32.432Z,85.06
2022-10-21T09:06:31.064Z,84.55
2022-10-21T09:07:30.970Z,84.80
2022-10-21T09:08:31.041Z,85.30
2022-10-21T09:09:30.959Z,85.00
2022-10-21T09:10:30.879Z,85.47
2022-10-21T09:11:30.882Z,85.37
2022-10-21T09:12:30.854Z,85.41
2022-10-21T09:13:30.852Z,85.41
2022-10-21T09:15:30.814Z,85.82
2022-10-21T09:16:30.814Z,85.21
2022-10-21T09:17:38.689Z,85.16
2022-10-21T09:18:30.811Z,85.27
2022-10-21T09:19:30.761Z,85.77
2022-10-21T09:20:30.762Z,85.27
2022-10-21T09:21:30.729Z,85.37
2022-10-21T09:22:35.360Z,85.27
2022-10-21T09:24:31.037Z,85.06
2022-10-21T09:26:53.035Z,85.37
2022-10-21T09:27:57.009Z,85.16
2022-10-21T09:28:52.944Z,84.92
2022-10-21T09:29:52.872Z,85.13
2022-10-21T09:30:52.904Z,85.22
2022-10-21T09:31:57.305Z,85.22
2022-10-21T09:32:53.774Z,85.63
2022-10-21T09:33:52.795Z,85.74
2022-10-21T09:34:52.758Z,85.49
2022-10-21T09:35:52.777Z,85.43
2022-10-21T09:36:52.770Z,84.88
2022-10-21T09:37:52.723Z,85.39
2022-10-21T09:38:52.740Z,84.67
2022-10-21T09:39:52.700Z,84.43
2022-10-21T09:40:52.691Z,84.58
2022-10-21T09:41:55.429Z,84.12
2022-10-21T09:42:54.015Z,83.42
2022-10-21T09:43:52.685Z,84.94
2022-10-21T09:44:52.649Z,84.53
2022-10-21T09:45:52.634Z,84.29
2022-10-21T09:46:52.648Z,84.70
2022-10-21T09:47:52.613Z,84.29
2022-10-21T09:49:36.714Z,83.78
2022-10-21T09:50:06.816Z,84.50
2022-10-21T09:50:53.579Z,84.80
2022-10-21T09:51:52.582Z,84.09
2022-10-21T09:52:52.562Z,83.98
2022-10-21T09:53:54.263Z,84.56
2022-10-21T09:54:52.530Z,83.54
2022-10-21T09:55:53.061Z,83.95
2022-10-21T09:56:52.504Z,83.74
2022-10-21T09:57:52.505Z,83.44
2022-10-21T09:58:53.472Z,83.13
2022-10-21T09:59:52.493Z,83.74
2022-10-21T10:00:52.484Z,83.29
2022-10-21T10:01:52.543Z,83.09
2022-10-21T10:02:52.443Z,83.29
2022-10-21T10:03:52.434Z,83.40
2022-10-21T10:04:52.421Z,83.40
2022-10-21T10:05:52.423Z,83.20
2022-10-21T10:06:52.417Z,83.70
2022-10-21T10:07:52.393Z,83.70
2022-10-21T10:08:52.509Z,83.60
2022-10-21T10:09:52.375Z,83.09
2022-10-21T10:10:52.379Z,83.20
2022-10-21T10:11:52.345Z,84.11
2022-10-21T10:12:52.359Z,83.81
2022-10-21T10:13:52.330Z,83.50
2022-10-21T10:14:52.333Z,83.67
2022-10-21T10:15:52.357Z,83.36
2022-10-21T10:16:52.294Z,83.40
2022-10-21T10:17:52.298Z,83.36
2022-10-21T10:18:52.276Z,83.87
2022-10-21T10:19:52.257Z,83.91
2022-10-21T10:20:52.243Z,83.70
2022-10-21T10:21:52.247Z,84.28
2022-10-21T10:22:52.271Z,83.70
2022-10-21T10:23:52.213Z,83.76
2022-10-21T10:24:52.201Z,83.46
2022-10-21T10:25:52.208Z,83.46
2022-10-21T10:26:52.226Z,83.06
2022-10-21T10:27:52.170Z,82.45
2022-10-21T10:28:52.155Z,83.46
2022-10-21T10:29:52.148Z,83.67
2022-10-21T10:30:52.246Z,83.46
2022-10-21T10:31:52.147Z,83.67
2022-10-21T10:32:52.134Z,83.76
2022-10-21T10:33:58.796Z,83.73
2022-10-21T10:34:52.086Z,84.07
2022-10-21T10:35:52.099Z,84.34
2022-10-21T10:36:52.108Z,84.03
2022-10-21T10:37:52.090Z,83.62
2022-10-21T10:38:52.052Z,83.53
2022-10-21T10:39:52.033Z,83.67
2022-10-21T10:40:55.173Z,83.56
2022-10-21T10:41:53.051Z,83.36
2022-10-21T10:42:52.001Z,83.15
2022-10-21T10:43:52.109Z,83.87
2022-10-21T10:44:52.000Z,84.48
2022-10-21T10:45:51.983Z,84.07
2022-10-21T10:46:52.080Z,84.17
2022-10-21T10:47:51.960Z,85.09
2022-10-21T10:48:51.956Z,85.09
2022-10-21T10:49:51.947Z,84.88
2022-10-21T10:50:51.905Z,84.38
2022-10-21T10:51:51.901Z,84.48
2022-10-21T10:52:51.900Z,84.28
2022-10-21T10:53:51.925Z,84.28
2022-10-21T10:54:51.866Z,84.88
2022-10-21T10:55:51.887Z,84.58
2022-10-21T10:56:51.840Z,84.82
2022-10-21T10:57:59.298Z,84.68
2022-10-21T10:58:52.842Z,85.43
2022-10-21T10:59:51.808Z,85.33
2022-10-21T11:00:51.986Z,86.86
2022-10-21T11:01:51.825Z,86.76
2022-10-21T11:02:51.878Z,87.16
2022-10-21T11:03:51.782Z,87.67
2022-10-21T11:04:51.794Z,87.26
2022-10-21T11:05:51.751Z,87.47
2022-10-21T11:06:51.771Z,88.63
2022-10-21T11:07:51.722Z,88.28
2022-10-21T11:08:51.806Z,89.00
2022-10-21T11:09:51.800Z,89.20
2022-10-21T11:10:51.704Z,89.30
2022-10-21T11:11:51.682Z,90.01
2022-10-21T11:12:51.691Z,89.81
2022-10-21T11:13:51.751Z,89.61
2022-10-21T11:14:51.770Z,90.16
2022-10-21T11:15:51.634Z,90.36
2022-10-21T11:17:00.170Z,90.66
2022-10-21T11:17:52.606Z,90.46
2022-10-21T11:18:51.733Z,90.97
2022-10-21T11:19:51.594Z,91.68
2022-10-21T11:20:51.674Z,91.72
2022-10-21T11:21:51.568Z,91.93
2022-10-21T11:22:51.701Z,92.13
2022-10-21T11:23:54.271Z,92.33
2022-10-21T11:24:52.567Z,92.64
2022-10-21T11:25:51.549Z,93.25
2022-10-21T11:26:51.508Z,93.05
2022-10-21T11:27:51.528Z,93.15
2022-10-21T11:28:51.544Z,93.15
2022-10-21T11:29:51.499Z,93.35
2022-10-21T11:30:51.479Z,93.35
2022-10-21T11:32:10.169Z,93.35
2022-10-21T11:32:52.436Z,93.55
2022-10-21T11:33:51.466Z,94.17
2022-10-21T11:34:51.525Z,94.88
2022-10-21T11:35:55.514Z,94.78
2022-10-21T11:36:52.398Z,94.57
2022-10-21T11:37:51.443Z,95.49
2022-10-21T11:38:51.391Z,95.14
2022-10-21T11:39:51.481Z,95.49
2022-10-21T11:40:51.414Z,95.24
2022-10-21T11:41:51.381Z,95.29
2022-10-21T11:42:51.349Z,95.08
2022-10-21T11:43:51.435Z,95.39
2022-10-21T11:44:51.387Z,95.18
2022-10-21T11:45:51.417Z,95.54
2022-10-21T11:46:51.302Z,95.75
2022-10-21T11:47:51.316Z,95.79
2022-10-21T11:48:51.374Z,95.08
2022-10-21T11:49:51.260Z,95.29
2022-10-21T11:50:51.369Z,95.29
2022-10-21T11:51:51.336Z,95.49
2022-10-21T11:52:51.274Z,95.29
2022-10-21T11:53:51.345Z,95.75
2022-10-21T11:55:08.326Z,95.54
2022-10-21T11:55:52.243Z,95.34
2022-10-21T11:56:51.261Z,95.69
2022-10-21T11:57:51.311Z,96.30
2022-10-21T11:58:51.180Z,96.00
2022-10-21T11:59:54.231Z,95.79
2022-10-21T12:00:52.155Z,96.10
2022-10-21T12:01:51.203Z,96.61
2022-10-21T12:02:51.180Z,95.69
2022-10-21T12:03:51.125Z,96.45
2022-10-21T12:04:51.096Z,96.96
2022-10-21T12:05:51.101Z,96.66
2022-10-21T12:06:51.245Z,97.27
2022-10-21T12:07:51.102Z,96.86
2022-10-21T12:08:51.648Z,97.27
2022-10-21T12:09:51.029Z,97.37
2022-10-21T12:10:51.061Z,97.06
2022-10-21T12:11:51.016Z,97.47
2022-10-21T12:12:51.015Z,97.57
2022-10-21T12:13:50.981Z,97.78
2022-10-21T12:14:50.978Z,97.78
2022-10-21T12:15:50.990Z,97.67
2022-10-21T12:16:50.994Z,97.98
2022-10-21T12:17:50.929Z,97.78
2022-10-21T12:18:50.964Z,97.78
2022-10-21T12:19:50.926Z,97.67
2022-10-21T12:20:50.933Z,97.88
2022-10-21T12:21:50.912Z,97.78
2022-10-21T12:22:50.981Z,97.47
2022-10-21T12:23:50.924Z,97.82
2022-10-21T12:24:50.866Z,97.66
2022-10-21T12:25:50.887Z,97.87
2022-10-21T12:26:50.883Z,97.62
2022-10-21T12:27:50.827Z,97.82
2022-10-21T12:28:50.813Z,98.43
2022-10-21T12:29:50.820Z,98.33
2022-10-21T12:30:50.844Z,98.43
2022-10-21T12:31:50.813Z,98.33
2022-10-21T12:32:50.763Z,98.23
2022-10-21T12:33:50.783Z,98.43
2022-10-21T12:34:50.747Z,97.92
2022-10-21T12:35:50.725Z,97.92
2022-10-21T12:36:50.725Z,97.62
2022-10-21T12:37:50.749Z,96.30
2022-10-21T12:38:50.813Z,96.60
2022-10-21T12:39:50.685Z,96.84
2022-10-21T12:40:50.699Z,96.75
2022-10-21T12:41:50.685Z,96.54
2022-10-21T12:42:50.680Z,96.14
2022-10-21T12:43:50.664Z,96.14
2022-10-21T12:44:50.693Z,96.89
2022-10-21T12:45:50.618Z,96.64
2022-10-21T12:46:50.633Z,96.69
2022-10-21T12:47:50.636Z,96.95
2022-10-21T12:48:50.589Z,96.75
2022-10-21T12:49:50.607Z,96.48
2022-10-21T12:50:50.608Z,96.38
2022-10-21T12:51:50.553Z,96.28
2022-10-21T12:52:50.545Z,96.08
2022-10-21T12:54:50.646Z,96.12
2022-10-21T12:55:50.537Z,95.97
2022-10-21T12:56:50.492Z,95.92
2022-10-21T12:57:50.493Z,95.31
2022-10-21T12:58:50.481Z,96.12
2022-10-21T12:59:50.465Z,95.72
2022-10-21T13:00:50.535Z,95.81
2022-10-21T13:01:50.445Z,95.81
2022-10-21T13:02:51.699Z,96.02
2022-10-21T13:03:50.463Z,95.92